sensor_id;sensor_type;location;lat;lon;timestamp;pressure;altitude;pressure_sealevel;temperature;humidity
76229;BME280;65021;53.174;18.160;2022-11-12T00:00:57;102526.30;;;9.87;75.82
76229;BME280;65021;53.174;18.160;2022-11-12T00:03:25;102527.59;;;9.84;75.84
76229;BME280;65021;53.174;18.160;2022-11-12T00:05:51;102533.95;;;9.88;75.55
76229;BME280;65021;53.174;18.160;2022-11-12T00:08:19;102532.39;;;9.93;75.82
76229;BME280;65021;53.174;18.160;2022-11-12T00:10:46;102532.50;;;9.96;75.63
76229;BME280;65021;53.174;18.160;2022-11-12T00:13:13;102532.83;;;9.95;75.75
76229;BME280;65021;53.174;18.160;2022-11-12T00:15:40;102532.86;;;9.91;75.84
76229;BME280;65021;53.174;18.160;2022-11-12T00:18:06;102538.17;;;9.87;75.80
76229;BME280;65021;53.174;18.160;2022-11-12T00:20:33;102536.55;;;9.83;75.61
76229;BME280;65021;53.174;18.160;2022-11-12T00:23:00;102534.16;;;9.82;76.00
76229;BME280;65021;53.174;18.160;2022-11-12T00:25:27;102530.97;;;9.80;75.84
76229;BME280;65021;53.174;18.160;2022-11-12T00:28:00;102533.79;;;9.81;75.73
76229;BME280;65021;53.174;18.160;2022-11-12T00:30:27;102536.28;;;9.81;75.68
76229;BME280;65021;53.174;18.160;2022-11-12T00:32:54;102537.47;;;9.81;75.69
76229;BME280;65021;53.174;18.160;2022-11-12T00:35:20;102536.98;;;9.79;75.94
76229;BME280;65021;53.174;18.160;2022-11-12T00:37:52;102540.63;;;9.77;75.72
76229;BME280;65021;53.174;18.160;2022-11-12T00:40:19;102541.61;;;9.72;75.79
76229;BME280;65021;53.174;18.160;2022-11-12T00:42:45;102544.48;;;9.68;75.99
76229;BME280;65021;53.174;18.160;2022-11-12T00:45:12;102551.55;;;9.71;75.87
76229;BME280;65021;53.174;18.160;2022-11-12T00:47:38;102550.99;;;9.74;75.88
76229;BME280;65021;53.174;18.160;2022-11-12T00:50:05;102556.77;;;9.76;75.75
76229;BME280;65021;53.174;18.160;2022-11-12T00:52:32;102559.35;;;9.78;75.79
76229;BME280;65021;53.174;18.160;2022-11-12T00:54:59;102558.98;;;9.75;75.72
76229;BME280;65021;53.174;18.160;2022-11-12T00:57:25;102556.25;;;9.70;75.74
76229;BME280;65021;53.174;18.160;2022-11-12T00:59:52;102549.33;;;9.67;75.93
76229;BME280;65021;53.174;18.160;2022-11-12T01:02:18;102550.19;;;9.63;75.96
76229;BME280;65021;53.174;18.160;2022-11-12T01:04:45;102548.77;;;9.60;75.91
76229;BME280;65021;53.174;18.160;2022-11-12T01:07:12;102548.27;;;9.61;75.92
76229;BME280;65021;53.174;18.160;2022-11-12T01:09:41;102549.64;;;9.63;75.75
76229;BME280;65021;53.174;18.160;2022-11-12T01:12:07;102549.88;;;9.63;75.84
76229;BME280;65021;53.174;18.160;2022-11-12T01:14:35;102552.06;;;9.60;76.03
76229;BME280;65021;53.174;18.160;2022-11-12T01:17:01;102559.66;;;9.55;75.88
76229;BME280;65021;53.174;18.160;2022-11-12T01:19:28;102556.85;;;9.53;76.01
76229;BME280;65021;53.174;18.160;2022-11-12T01:21:54;102557.65;;;9.51;75.93
76229;BME280;65021;53.174;18.160;2022-11-12T01:24:21;102558.02;;;9.53;76.02
76229;BME280;65021;53.174;18.160;2022-11-12T01:26:47;102559.51;;;9.57;75.87
76229;BME280;65021;53.174;18.160;2022-11-12T01:29:14;102556.21;;;9.56;75.92
76229;BME280;65021;53.174;18.160;2022-11-12T01:31:40;102557.38;;;9.53;75.98
76229;BME280;65021;53.174;18.160;2022-11-12T01:34:08;102556.67;;;9.52;76.06
76229;BME280;65021;53.174;18.160;2022-11-12T01:36:37;102555.56;;;9.51;76.09
76229;BME280;65021;53.174;18.160;2022-11-12T01:39:06;102558.40;;;9.50;76.17
76229;BME280;65021;53.174;18.160;2022-11-12T01:41:35;102558.67;;;9.50;76.09
76229;BME280;65021;53.174;18.160;2022-11-12T01:44:19;102554.99;;;9.55;76.01
76229;BME280;65021;53.174;18.160;2022-11-12T01:49:49;102557.02;;;9.56;76.00
76229;BME280;65021;53.174;18.160;2022-11-12T01:52:34;102558.88;;;9.50;76.12
76229;BME280;65021;53.174;18.160;2022-11-12T01:55:06;102560.83;;;9.46;76.03
76229;BME280;65021;53.174;18.160;2022-11-12T01:58:13;102556.29;;;9.44;76.34
76229;BME280;65021;53.174;18.160;2022-11-12T02:00:41;102560.04;;;9.47;76.23
76229;BME280;65021;53.174;18.160;2022-11-12T02:03:17;102565.09;;;9.52;76.01
76229;BME280;65021;53.174;18.160;2022-11-12T02:05:45;102563.58;;;9.57;76.12
76229;BME280;65021;53.174;18.160;2022-11-12T02:08:13;102565.16;;;9.54;76.23
76229;BME280;65021;53.174;18.160;2022-11-12T02:10:40;102562.73;;;9.50;76.16
76229;BME280;65021;53.174;18.160;2022-11-12T02:13:07;102559.61;;;9.47;76.19
76229;BME280;65021;53.174;18.160;2022-11-12T02:15:53;102561.17;;;9.45;76.20
76229;BME280;65021;53.174;18.160;2022-11-12T02:18:19;102563.27;;;9.43;76.34
76229;BME280;65021;53.174;18.160;2022-11-12T02:20:52;102567.06;;;9.46;76.36
76229;BME280;65021;53.174;18.160;2022-11-12T02:23:19;102568.14;;;9.50;76.26
76229;BME280;65021;53.174;18.160;2022-11-12T02:25:49;102566.17;;;9.54;76.05
76229;BME280;65021;53.174;18.160;2022-11-12T02:28:16;102564.37;;;9.56;76.07
76229;BME280;65021;53.174;18.160;2022-11-12T02:30:45;102566.34;;;9.57;76.05
76229;BME280;65021;53.174;18.160;2022-11-12T02:33:12;102571.27;;;9.55;76.22
76229;BME280;65021;53.174;18.160;2022-11-12T02:35:39;102575.48;;;9.53;76.31
76229;BME280;65021;53.174;18.160;2022-11-12T02:38:06;102578.19;;;9.55;76.19
76229;BME280;65021;53.174;18.160;2022-11-12T02:40:33;102580.98;;;9.61;76.09
76229;BME280;65021;53.174;18.160;2022-11-12T02:42:59;102582.58;;;9.64;76.21
76229;BME280;65021;53.174;18.160;2022-11-12T02:45:27;102582.10;;;9.67;76.08
76229;BME280;65021;53.174;18.160;2022-11-12T02:47:53;102583.55;;;9.67;76.14
76229;BME280;65021;53.174;18.160;2022-11-12T02:50:20;102591.23;;;9.66;76.02
76229;BME280;65021;53.174;18.160;2022-11-12T02:52:46;102590.90;;;9.64;76.27
76229;BME280;65021;53.174;18.160;2022-11-12T02:55:13;102589.62;;;9.60;76.19
76229;BME280;65021;53.174;18.160;2022-11-12T02:57:40;102587.98;;;9.56;76.22
76229;BME280;65021;53.174;18.160;2022-11-12T03:00:12;102588.27;;;9.52;76.23
76229;BME280;65021;53.174;18.160;2022-11-12T03:02:39;102591.92;;;9.52;76.07
76229;BME280;65021;53.174;18.160;2022-11-12T03:05:11;102593.70;;;9.56;76.07
76229;BME280;65021;53.174;18.160;2022-11-12T03:07:38;102593.09;;;9.57;75.97
76229;BME280;65021;53.174;18.160;2022-11-12T03:10:05;102596.02;;;9.61;75.96
76229;BME280;65021;53.174;18.160;2022-11-12T03:12:32;102588.96;;;9.59;75.99
76229;BME280;65021;53.174;18.160;2022-11-12T03:14:58;102596.33;;;9.61;76.06
76229;BME280;65021;53.174;18.160;2022-11-12T03:17:25;102599.49;;;9.61;76.20
76229;BME280;65021;53.174;18.160;2022-11-12T03:19:52;102597.98;;;9.60;75.92
76229;BME280;65021;53.174;18.160;2022-11-12T03:22:18;102594.14;;;9.57;76.06
76229;BME280;65021;53.174;18.160;2022-11-12T03:24:45;102595.96;;;9.55;75.97
76229;BME280;65021;53.174;18.160;2022-11-12T03:27:11;102596.16;;;9.54;75.99
76229;BME280;65021;53.174;18.160;2022-11-12T03:29:38;102594.95;;;9.52;75.90
76229;BME280;65021;53.174;18.160;2022-11-12T03:32:04;102593.23;;;9.55;75.75
76229;BME280;65021;53.174;18.160;2022-11-12T03:34:31;102593.69;;;9.61;75.96
76229;BME280;65021;53.174;18.160;2022-11-12T03:36:57;102590.96;;;9.65;75.89
76229;BME280;65021;53.174;18.160;2022-11-12T03:39:24;102587.83;;;9.68;75.73
76229;BME280;65021;53.174;18.160;2022-11-12T03:41:50;102587.30;;;9.67;75.79
76229;BME280;65021;53.174;18.160;2022-11-12T03:44:17;102589.14;;;9.67;75.81
76229;BME280;65021;53.174;18.160;2022-11-12T03:46:43;102583.98;;;9.65;75.85
76229;BME280;65021;53.174;18.160;2022-11-12T03:49:10;102580.45;;;9.62;75.84
76229;BME280;65021;53.174;18.160;2022-11-12T03:51:36;102578.79;;;9.58;75.97
76229;BME280;65021;53.174;18.160;2022-11-12T03:54:03;102577.22;;;9.56;75.85
76229;BME280;65021;53.174;18.160;2022-11-12T03:56:30;102582.90;;;9.59;75.72
76229;BME280;65021;53.174;18.160;2022-11-12T03:58:56;102587.73;;;9.62;75.78
76229;BME280;65021;53.174;18.160;2022-11-12T04:01:23;102586.29;;;9.64;75.93
76229;BME280;65021;53.174;18.160;2022-11-12T04:03:49;102593.02;;;9.65;75.81
76229;BME280;65021;53.174;18.160;2022-11-12T04:06:16;102592.42;;;9.67;75.98
76229;BME280;65021;53.174;18.160;2022-11-12T04:09:01;102589.20;;;9.68;76.12
76229;BME280;65021;53.174;18.160;2022-11-12T04:11:28;102588.93;;;9.67;76.20
76229;BME280;65021;53.174;18.160;2022-11-12T04:13:55;102590.62;;;9.65;76.00
76229;BME280;65021;53.174;18.160;2022-11-12T04:16:21;102588.58;;;9.62;76.29
76229;BME280;65021;53.174;18.160;2022-11-12T04:19:11;102588.44;;;9.65;76.02
76229;BME280;65021;53.174;18.160;2022-11-12T04:22:08;102580.98;;;9.69;75.85
76229;BME280;65021;53.174;18.160;2022-11-12T04:24:36;102580.61;;;9.72;76.01
76229;BME280;65021;53.174;18.160;2022-11-12T04:27:31;102578.30;;;9.73;76.18
76229;BME280;65021;53.174;18.160;2022-11-12T04:29:59;102581.67;;;9.71;76.14
76229;BME280;65021;53.174;18.160;2022-11-12T04:32:54;102583.04;;;9.71;76.24
76229;BME280;65021;53.174;18.160;2022-11-12T04:35:23;102583.23;;;9.69;76.32
76229;BME280;65021;53.174;18.160;2022-11-12T04:37:50;102581.21;;;9.69;76.21
76229;BME280;65021;53.174;18.160;2022-11-12T04:40:19;102583.86;;;9.69;76.36
76229;BME280;65021;53.174;18.160;2022-11-12T04:43:08;102577.45;;;9.68;76.43
76229;BME280;65021;53.174;18.160;2022-11-12T04:45:54;102577.30;;;9.69;76.36
76229;BME280;65021;53.174;18.160;2022-11-12T04:48:22;102573.30;;;9.76;76.45
76229;BME280;65021;53.174;18.160;2022-11-12T04:50:53;102578.98;;;9.83;76.10
76229;BME280;65021;53.174;18.160;2022-11-12T04:53:20;102576.80;;;9.87;76.12
76229;BME280;65021;53.174;18.160;2022-11-12T04:55:50;102576.53;;;9.89;76.14
76229;BME280;65021;53.174;18.160;2022-11-12T04:58:17;102574.39;;;9.90;76.17
76229;BME280;65021;53.174;18.160;2022-11-12T05:00:45;102572.48;;;9.90;76.38
76229;BME280;65021;53.174;18.160;2022-11-12T05:03:11;102572.17;;;9.89;76.28
76229;BME280;65021;53.174;18.160;2022-11-12T05:05:38;102569.66;;;9.85;76.31
76229;BME280;65021;53.174;18.160;2022-11-12T05:08:04;102569.77;;;9.82;76.34
76229;BME280;65021;53.174;18.160;2022-11-12T05:10:31;102571.61;;;9.77;76.62
76229;BME280;65021;53.174;18.160;2022-11-12T05:12:58;102571.53;;;9.74;76.39
76229;BME280;65021;53.174;18.160;2022-11-12T05:15:24;102569.17;;;9.76;76.44
76229;BME280;65021;53.174;18.160;2022-11-12T05:17:51;102563.52;;;9.80;76.21
76229;BME280;65021;53.174;18.160;2022-11-12T05:20:18;102564.52;;;9.83;76.33
76229;BME280;65021;53.174;18.160;2022-11-12T05:22:45;102568.80;;;9.86;76.22
76229;BME280;65021;53.174;18.160;2022-11-12T05:25:11;102569.19;;;9.86;76.52
76229;BME280;65021;53.174;18.160;2022-11-12T05:27:38;102567.55;;;9.86;76.58
76229;BME280;65021;53.174;18.160;2022-11-12T05:30:05;102567.52;;;9.86;76.54
76229;BME280;65021;53.174;18.160;2022-11-12T05:32:33;102572.70;;;9.86;76.60
76229;BME280;65021;53.174;18.160;2022-11-12T05:34:59;102575.45;;;9.85;76.43
76229;BME280;65021;53.174;18.160;2022-11-12T05:37:26;102577.82;;;9.82;76.53
76229;BME280;65021;53.174;18.160;2022-11-12T05:39:52;102579.70;;;9.80;76.47
76229;BME280;65021;53.174;18.160;2022-11-12T05:42:19;102580.86;;;9.83;76.46
76229;BME280;65021;53.174;18.160;2022-11-12T05:44:45;102583.78;;;9.88;76.32
76229;BME280;65021;53.174;18.160;2022-11-12T05:47:12;102587.58;;;9.93;76.44
76229;BME280;65021;53.174;18.160;2022-11-12T05:49:38;102588.36;;;9.97;76.52
76229;BME280;65021;53.174;18.160;2022-11-12T05:52:05;102591.42;;;9.96;76.48
76229;BME280;65021;53.174;18.160;2022-11-12T05:54:31;102590.73;;;9.96;76.57
76229;BME280;65021;53.174;18.160;2022-11-12T05:56:58;102596.02;;;9.95;76.47
76229;BME280;65021;53.174;18.160;2022-11-12T05:59:24;102597.14;;;9.95;76.64
76229;BME280;65021;53.174;18.160;2022-11-12T06:01:51;102597.00;;;9.93;76.66
76229;BME280;65021;53.174;18.160;2022-11-12T06:04:18;102599.61;;;9.90;76.66
76229;BME280;65021;53.174;18.160;2022-11-12T06:06:44;102597.33;;;9.92;76.56
76229;BME280;65021;53.174;18.160;2022-11-12T06:09:11;102595.43;;;9.95;76.50
76229;BME280;65021;53.174;18.160;2022-11-12T06:11:37;102594.27;;;9.96;76.54
76229;BME280;65021;53.174;18.160;2022-11-12T06:14:04;102599.26;;;9.97;76.64
76229;BME280;65021;53.174;18.160;2022-11-12T06:16:31;102605.80;;;9.97;76.72
76229;BME280;65021;53.174;18.160;2022-11-12T06:18:58;102604.60;;;9.97;76.74
76229;BME280;65021;53.174;18.160;2022-11-12T06:21:25;102599.96;;;9.96;76.76
76229;BME280;65021;53.174;18.160;2022-11-12T06:23:57;102598.51;;;9.95;76.81
76229;BME280;65021;53.174;18.160;2022-11-12T06:26:26;102601.70;;;9.91;77.04
76229;BME280;65021;53.174;18.160;2022-11-12T06:28:54;102602.15;;;9.88;77.07
76229;BME280;65021;53.174;18.160;2022-11-12T06:31:21;102604.05;;;9.89;76.90
76229;BME280;65021;53.174;18.160;2022-11-12T06:33:48;102611.59;;;9.95;76.88
76229;BME280;65021;53.174;18.160;2022-11-12T06:36:17;102613.09;;;9.99;76.83
76229;BME280;65021;53.174;18.160;2022-11-12T06:38:44;102614.90;;;10.01;76.87
76229;BME280;65021;53.174;18.160;2022-11-12T06:41:12;102619.80;;;10.00;76.94
76229;BME280;65021;53.174;18.160;2022-11-12T06:43:39;102621.77;;;10.01;77.07
76229;BME280;65021;53.174;18.160;2022-11-12T06:46:08;102625.15;;;10.03;76.89
76229;BME280;65021;53.174;18.160;2022-11-12T06:48:36;102628.57;;;10.05;76.94
76229;BME280;65021;53.174;18.160;2022-11-12T06:51:09;102629.57;;;10.05;76.90
76229;BME280;65021;53.174;18.160;2022-11-12T06:53:36;102625.11;;;10.09;77.14
76229;BME280;65021;53.174;18.160;2022-11-12T06:56:04;102626.91;;;10.15;76.77
76229;BME280;65021;53.174;18.160;2022-11-12T06:58:31;102624.39;;;10.23;76.84
76229;BME280;65021;53.174;18.160;2022-11-12T07:01:07;102626.11;;;10.27;76.95
76229;BME280;65021;53.174;18.160;2022-11-12T07:03:35;102629.79;;;10.28;76.69
76229;BME280;65021;53.174;18.160;2022-11-12T07:06:04;102632.17;;;10.27;76.83
76229;BME280;65021;53.174;18.160;2022-11-12T07:08:31;102639.64;;;10.25;76.88
76229;BME280;65021;53.174;18.160;2022-11-12T07:10:58;102639.14;;;10.26;76.76
76229;BME280;65021;53.174;18.160;2022-11-12T07:13:24;102645.92;;;10.34;76.92
76229;BME280;65021;53.174;18.160;2022-11-12T07:15:51;102645.45;;;10.43;76.71
76229;BME280;65021;53.174;18.160;2022-11-12T07:18:17;102648.39;;;10.51;76.48
76229;BME280;65021;53.174;18.160;2022-11-12T07:20:44;102652.95;;;10.54;76.50
76229;BME280;65021;53.174;18.160;2022-11-12T07:23:10;102647.38;;;10.57;76.34
76229;BME280;65021;53.174;18.160;2022-11-12T07:25:37;102652.58;;;10.60;76.54
76229;BME280;65021;53.174;18.160;2022-11-12T07:28:03;102655.33;;;10.61;76.32
76229;BME280;65021;53.174;18.160;2022-11-12T07:30:30;102655.25;;;10.63;76.43
76229;BME280;65021;53.174;18.160;2022-11-12T07:32:57;102658.58;;;10.66;76.14
76229;BME280;65021;53.174;18.160;2022-11-12T07:35:23;102664.25;;;10.68;76.14
76229;BME280;65021;53.174;18.160;2022-11-12T07:37:50;102662.36;;;10.74;76.17
76229;BME280;65021;53.174;18.160;2022-11-12T07:40:17;102660.36;;;10.79;75.93
76229;BME280;65021;53.174;18.160;2022-11-12T07:42:43;102660.77;;;10.87;75.95
76229;BME280;65021;53.174;18.160;2022-11-12T07:45:10;102658.24;;;10.92;75.69
76229;BME280;65021;53.174;18.160;2022-11-12T07:47:36;102655.00;;;10.93;75.39
76229;BME280;65021;53.174;18.160;2022-11-12T07:50:03;102656.84;;;10.94;75.65
76229;BME280;65021;53.174;18.160;2022-11-12T07:52:31;102656.23;;;10.99;75.62
76229;BME280;65021;53.174;18.160;2022-11-12T07:54:58;102660.31;;;11.02;75.52
76229;BME280;65021;53.174;18.160;2022-11-12T07:57:25;102660.67;;;11.03;75.50
76229;BME280;65021;53.174;18.160;2022-11-12T07:59:51;102659.83;;;11.04;75.37
76229;BME280;65021;53.174;18.160;2022-11-12T08:02:18;102664.95;;;11.08;75.20
76229;BME280;65021;53.174;18.160;2022-11-12T08:04:44;102661.03;;;11.10;75.32
76229;BME280;65021;53.174;18.160;2022-11-12T08:07:11;102665.45;;;11.08;75.05
76229;BME280;65021;53.174;18.160;2022-11-12T08:09:37;102666.70;;;11.03;75.26
76229;BME280;65021;53.174;18.160;2022-11-12T08:12:04;102666.22;;;11.00;74.83
76229;BME280;65021;53.174;18.160;2022-11-12T08:14:31;102667.27;;;10.99;75.21
76229;BME280;65021;53.174;18.160;2022-11-12T08:16:57;102671.31;;;11.01;75.47
76229;BME280;65021;53.174;18.160;2022-11-12T08:19:24;102671.79;;;11.01;75.31
76229;BME280;65021;53.174;18.160;2022-11-12T08:21:50;102669.63;;;11.00;75.34
76229;BME280;65021;53.174;18.160;2022-11-12T08:24:17;102674.54;;;11.02;75.13
76229;BME280;65021;53.174;18.160;2022-11-12T08:26:44;102677.06;;;11.02;74.94
76229;BME280;65021;53.174;18.160;2022-11-12T08:29:10;102676.17;;;11.05;75.31
76229;BME280;65021;53.174;18.160;2022-11-12T08:31:37;102675.67;;;11.06;75.31
76229;BME280;65021;53.174;18.160;2022-11-12T08:34:03;102679.98;;;11.03;74.98
76229;BME280;65021;53.174;18.160;2022-11-12T08:36:37;102681.61;;;10.98;75.16
76229;BME280;65021;53.174;18.160;2022-11-12T08:39:06;102683.52;;;10.96;75.06
76229;BME280;65021;53.174;18.160;2022-11-12T08:41:33;102676.94;;;10.98;75.15
76229;BME280;65021;53.174;18.160;2022-11-12T08:43:59;102680.70;;;11.02;75.08
76229;BME280;65021;53.174;18.160;2022-11-12T08:46:26;102685.91;;;11.11;75.09
76229;BME280;65021;53.174;18.160;2022-11-12T08:48:53;102689.60;;;11.20;74.68
76229;BME280;65021;53.174;18.160;2022-11-12T08:51:19;102687.71;;;11.26;74.59
76229;BME280;65021;53.174;18.160;2022-11-12T08:53:46;102692.95;;;11.32;74.56
76229;BME280;65021;53.174;18.160;2022-11-12T08:56:12;102703.27;;;11.38;74.58
76229;BME280;65021;53.174;18.160;2022-11-12T08:58:39;102707.19;;;11.42;74.36
76229;BME280;65021;53.174;18.160;2022-11-12T09:01:06;102707.92;;;11.43;74.41
76229;BME280;65021;53.174;18.160;2022-11-12T09:03:33;102713.72;;;11.46;74.36
76229;BME280;65021;53.174;18.160;2022-11-12T09:06:04;102710.29;;;11.52;74.19
76229;BME280;65021;53.174;18.160;2022-11-12T09:08:33;102711.88;;;11.61;74.25
76229;BME280;65021;53.174;18.160;2022-11-12T09:11:00;102718.30;;;11.64;73.76
76229;BME280;65021;53.174;18.160;2022-11-12T09:13:26;102718.91;;;11.62;73.08
76229;BME280;65021;53.174;18.160;2022-11-12T09:15:58;102716.09;;;11.61;73.58
76229;BME280;65021;53.174;18.160;2022-11-12T09:18:25;102721.89;;;11.63;73.69
76229;BME280;65021;53.174;18.160;2022-11-12T09:20:51;102731.94;;;11.68;73.80
76229;BME280;65021;53.174;18.160;2022-11-12T09:23:18;102726.16;;;11.72;73.41
76229;BME280;65021;53.174;18.160;2022-11-12T09:25:44;102726.35;;;11.77;73.55
76229;BME280;65021;53.174;18.160;2022-11-12T09:28:16;102727.27;;;11.87;73.41
76229;BME280;65021;53.174;18.160;2022-11-12T09:30:45;102720.81;;;11.94;73.36
76229;BME280;65021;53.174;18.160;2022-11-12T09:33:13;102731.73;;;11.97;73.44
76229;BME280;65021;53.174;18.160;2022-11-12T09:35:40;102726.20;;;11.99;72.82
76229;BME280;65021;53.174;18.160;2022-11-12T09:38:06;102732.14;;;12.02;73.14
76229;BME280;65021;53.174;18.160;2022-11-12T09:43:28;102732.63;;;12.05;73.02
76229;BME280;65021;53.174;18.160;2022-11-12T09:46:01;102733.08;;;12.10;72.70
76229;BME280;65021;53.174;18.160;2022-11-12T09:48:35;102733.63;;;12.08;72.75
76229;BME280;65021;53.174;18.160;2022-11-12T09:51:18;102730.21;;;12.04;72.35
76229;BME280;65021;53.174;18.160;2022-11-12T09:53:54;102728.48;;;12.00;72.78
76229;BME280;65021;53.174;18.160;2022-11-12T09:56:22;102728.56;;;11.89;72.43
76229;BME280;65021;53.174;18.160;2022-11-12T09:58:49;102725.64;;;11.87;72.94
76229;BME280;65021;53.174;18.160;2022-11-12T10:01:38;102723.13;;;11.89;73.10
76229;BME280;65021;53.174;18.160;2022-11-12T10:06:52;102717.77;;;12.02;72.34
76229;BME280;65021;53.174;18.160;2022-11-12T10:09:28;102718.93;;;12.04;72.57
76229;BME280;65021;53.174;18.160;2022-11-12T10:12:23;102723.64;;;12.08;72.90
76229;BME280;65021;53.174;18.160;2022-11-12T10:18:13;102712.65;;;12.11;72.34
76229;BME280;65021;53.174;18.160;2022-11-12T10:26:10;102714.47;;;12.24;72.67
76229;BME280;65021;53.174;18.160;2022-11-12T10:28:49;102716.91;;;12.26;72.66
76229;BME280;65021;53.174;18.160;2022-11-12T10:31:20;102719.14;;;12.26;72.63
76229;BME280;65021;53.174;18.160;2022-11-12T10:33:46;102718.20;;;12.24;72.53
76229;BME280;65021;53.174;18.160;2022-11-12T10:36:29;102715.36;;;12.25;72.45
76229;BME280;65021;53.174;18.160;2022-11-12T10:38:59;102713.13;;;12.26;72.38
76229;BME280;65021;53.174;18.160;2022-11-12T10:41:28;102718.42;;;12.29;72.27
76229;BME280;65021;53.174;18.160;2022-11-12T10:44:04;102706.98;;;12.40;72.37
76229;BME280;65021;53.174;18.160;2022-11-12T10:46:35;102705.34;;;12.56;72.37
76229;BME280;65021;53.174;18.160;2022-11-12T10:51:54;102695.95;;;12.57;72.07
76229;BME280;65021;53.174;18.160;2022-11-12T10:56:52;102696.04;;;12.63;72.32
76229;BME280;65021;53.174;18.160;2022-11-12T10:59:23;102696.42;;;12.59;72.28
76229;BME280;65021;53.174;18.160;2022-11-12T11:01:59;102694.28;;;12.58;72.28
76229;BME280;65021;53.174;18.160;2022-11-12T11:04:35;102691.86;;;12.51;72.12
76229;BME280;65021;53.174;18.160;2022-11-12T11:07:06;102692.45;;;12.44;72.06
76229;BME280;65021;53.174;18.160;2022-11-12T11:09:59;102685.94;;;12.45;72.15
76229;BME280;65021;53.174;18.160;2022-11-12T11:12:31;102691.61;;;12.44;72.10
76229;BME280;65021;53.174;18.160;2022-11-12T11:15:18;102688.13;;;12.47;72.37
76229;BME280;65021;53.174;18.160;2022-11-12T11:17:46;102685.34;;;12.51;72.27
76229;BME280;65021;53.174;18.160;2022-11-12T11:20:24;102687.89;;;12.53;72.38
76229;BME280;65021;53.174;18.160;2022-11-12T11:23:16;102686.94;;;12.53;72.29
76229;BME280;65021;53.174;18.160;2022-11-12T11:25:47;102683.08;;;12.59;72.37
76229;BME280;65021;53.174;18.160;2022-11-12T11:37:28;102668.67;;;13.07;71.74
76229;BME280;65021;53.174;18.160;2022-11-12T11:52:00;102674.83;;;13.30;71.12
76229;BME280;65021;53.174;18.160;2022-11-12T11:54:30;102679.42;;;13.34;71.17
76229;BME280;65021;53.174;18.160;2022-11-12T11:57:03;102677.66;;;13.35;70.97
76229;BME280;65021;53.174;18.160;2022-11-12T12:05:10;102670.33;;;13.60;70.79
76229;BME280;65021;53.174;18.160;2022-11-12T12:08:04;102671.09;;;13.66;70.65
76229;BME280;65021;53.174;18.160;2022-11-12T12:16:27;102676.48;;;13.61;69.86
76229;BME280;65021;53.174;18.160;2022-11-12T12:21:31;102684.58;;;13.53;70.46
76229;BME280;65021;53.174;18.160;2022-11-12T12:24:27;102679.41;;;13.54;70.64
76229;BME280;65021;53.174;18.160;2022-11-12T12:27:16;102681.86;;;13.56;70.46
76229;BME280;65021;53.174;18.160;2022-11-12T12:29:52;102682.43;;;13.65;70.31
76229;BME280;65021;53.174;18.160;2022-11-12T12:35:15;102682.41;;;13.70;70.24
76229;BME280;65021;53.174;18.160;2022-11-12T12:38:04;102688.19;;;13.67;70.00
76229;BME280;65021;53.174;18.160;2022-11-12T12:40:42;102693.16;;;13.57;70.10
76229;BME280;65021;53.174;18.160;2022-11-12T12:43:21;102690.45;;;13.47;70.35
76229;BME280;65021;53.174;18.160;2022-11-12T12:45:51;102690.33;;;13.40;70.49
76229;BME280;65021;53.174;18.160;2022-11-12T12:48:21;102687.70;;;13.35;70.44
76229;BME280;65021;53.174;18.160;2022-11-12T12:50:51;102688.08;;;13.28;70.52
76229;BME280;65021;53.174;18.160;2022-11-12T12:55:56;102694.79;;;13.23;70.56
76229;BME280;65021;53.174;18.160;2022-11-12T12:58:28;102695.04;;;13.23;70.55
76229;BME280;65021;53.174;18.160;2022-11-12T13:08:51;102702.98;;;12.85;70.84
76229;BME280;65021;53.174;18.160;2022-11-12T13:17:11;102706.96;;;12.69;71.27
76229;BME280;65021;53.174;18.160;2022-11-12T13:41:04;102704.50;;;12.61;71.71
76229;BME280;65021;53.174;18.160;2022-11-12T13:43:33;102702.95;;;12.61;71.85
76229;BME280;65021;53.174;18.160;2022-11-12T13:48:43;102706.26;;;12.58;72.03
76229;BME280;65021;53.174;18.160;2022-11-12T13:53:42;102711.52;;;12.55;72.17
76229;BME280;65021;53.174;18.160;2022-11-12T13:56:32;102713.41;;;12.52;72.06
76229;BME280;65021;53.174;18.160;2022-11-12T13:59:25;102712.12;;;12.51;72.02
76229;BME280;65021;53.174;18.160;2022-11-12T14:01:52;102711.22;;;12.52;72.10
76229;BME280;65021;53.174;18.160;2022-11-12T14:04:22;102706.38;;;12.55;72.04
76229;BME280;65021;53.174;18.160;2022-11-12T14:06:52;102710.06;;;12.56;72.12
76229;BME280;65021;53.174;18.160;2022-11-12T14:12:45;102715.64;;;12.52;72.23
76229;BME280;65021;53.174;18.160;2022-11-12T14:18:44;102710.38;;;12.38;72.39
76229;BME280;65021;53.174;18.160;2022-11-12T14:21:19;102713.38;;;12.35;72.49
76229;BME280;65021;53.174;18.160;2022-11-12T14:23:46;102712.98;;;12.31;72.43
76229;BME280;65021;53.174;18.160;2022-11-12T14:26:32;102707.83;;;12.31;72.52
76229;BME280;65021;53.174;18.160;2022-11-12T14:28:58;102710.75;;;12.32;72.55
76229;BME280;65021;53.174;18.160;2022-11-12T14:31:25;102715.21;;;12.34;72.36
76229;BME280;65021;53.174;18.160;2022-11-12T14:33:51;102711.99;;;12.34;72.65
76229;BME280;65021;53.174;18.160;2022-11-12T14:36:18;102716.42;;;12.34;72.68
76229;BME280;65021;53.174;18.160;2022-11-12T14:38:49;102721.08;;;12.32;72.85
76229;BME280;65021;53.174;18.160;2022-11-12T14:41:22;102722.80;;;12.27;72.98
76229;BME280;65021;53.174;18.160;2022-11-12T14:43:52;102723.73;;;12.23;72.86
76229;BME280;65021;53.174;18.160;2022-11-12T14:49:40;102721.45;;;12.14;73.09
76229;BME280;65021;53.174;18.160;2022-11-12T14:52:14;102719.81;;;12.20;73.03